This is the latest recevied weather packets stored in our database for station/object HK3BJ-11. If no packets are shown the sender has not sent any weather packets the latest 10 day(s).
| Time | Temp. | Humidity | Pressure | Rain* | Wind** | Luminosity | Snow |
|---|---|---|---|---|---|---|---|
| 1787706491 | 12.78° C | 69% | 1019 hPa | 0 mm | - | - | - |
| 1787705540 | 12.78° C | 74% | 1019 hPa | 0 mm | - | - | - |
| 1787704566 | 12.78° C | 75% | 1019 hPa | 0 mm | - | - | - |
| 1787703609 | 13.33° C | 74% | 1017 hPa | 0 mm | - | - | - |
| 1787702665 | 12.22° C | 74% | 1017 hPa | 0 mm | - | - | - |
| 1787701721 | 13.89° C | 72% | 1017 hPa | 0 mm | - | - | - |
| 1787700769 | 12.78° C | 72% | 1017 hPa | 0 mm | - | - | - |
| 1787699821 | 15.56° C | 65% | 1015 hPa | 0 mm | - | - | - |
| 1787698873 | 15.56° C | 66% | 1015 hPa | 0 mm | - | - | - |
| 1787697923 | 15.56° C | 69% | 1015 hPa | 0 mm | - | - | - |
| 1787696950 | 17.78° C | 66% | 1014 hPa | 0 mm | - | - | - |
| 1787695966 | 16.67° C | 66% | 1014 hPa | 0 mm | - | - | - |
| 1787695023 | 15.56° C | 66% | 1014 hPa | 0 mm | - | - | - |
| 1787694080 | 18.89° C | 64% | 1014 hPa | 0 mm | - | - | - |
| 1787693134 | 17.78° C | 64% | 1014 hPa | 0 mm | - | - | - |
| 1787692184 | 16.67° C | 64% | 1014 hPa | 0 mm | - | - | - |
| 1787691239 | 15.56° C | 64% | 1014 hPa | 0 mm | - | - | - |
| 1787690293 | 18.89° C | 63% | 1014 hPa | 0 mm | - | - | - |
| 1787689347 | 17.78° C | 63% | 1014 hPa | 0 mm | - | - | - |
| 1787688400 | 16.67° C | 63% | 1014 hPa | 0 mm | - | - | - |
| 1787687456 | 15.56° C | 63% | 1014 hPa | 0 mm | - | - | - |
| 1787686515 | 20° C | 59% | 1014 hPa | 0 mm | - | - | - |
| 1787685572 | 18.89° C | 59% | 1014 hPa | 0 mm | - | - | - |
| 1787684629 | 17.78° C | 59% | 1014 hPa | 0 mm | - | - | - |
| 1787683680 | 16.67° C | 59% | 1014 hPa | 0 mm | - | - | - |
* Rain latest hour (hover to see other rain measurements)
** Current wind speed in m/s (hover to see current wind gust speed)